createdAt,value
2023-05-13T00:01:22.879Z,95.26
2023-05-13T00:03:03.444Z,95.42
2023-05-13T00:04:43.740Z,95.29
2023-05-13T00:06:24.226Z,95.37
2023-05-13T00:08:04.624Z,95.26
2023-05-13T00:09:45.120Z,95.09
2023-05-13T00:11:25.554Z,95.01
2023-05-13T00:13:05.995Z,94.95
2023-05-13T00:14:46.428Z,95.16
2023-05-13T00:16:26.819Z,95.47
2023-05-13T00:18:07.178Z,95.63
2023-05-13T00:19:47.632Z,95.7
2023-05-13T00:21:27.965Z,95.76
2023-05-13T00:23:08.478Z,96.06
2023-05-13T00:24:48.872Z,96.1
2023-05-13T00:26:29.290Z,95.99
2023-05-13T00:28:09.696Z,96.1
2023-05-13T00:29:50.130Z,96.11
2023-05-13T00:31:30.583Z,95.92
2023-05-13T00:33:10.896Z,95.7
2023-05-13T00:34:51.302Z,96.07
2023-05-13T00:36:31.732Z,96.37
2023-05-13T00:38:12.088Z,96.15
2023-05-13T00:39:52.503Z,96.07
2023-05-13T00:41:32.931Z,95.86
2023-05-13T00:43:13.315Z,95.91
2023-05-13T00:44:53.727Z,95.76
2023-05-13T00:46:34.150Z,95.9
2023-05-13T00:48:14.554Z,95.98
2023-05-13T00:49:54.938Z,96.02
2023-05-13T00:51:35.442Z,96.09
2023-05-13T00:53:15.850Z,96.33
2023-05-13T00:54:56.301Z,96.33
2023-05-13T00:56:36.761Z,96.28
2023-05-13T00:58:17.107Z,96.1
2023-05-13T00:59:57.508Z,95.86
2023-05-13T01:01:38.055Z,95.74
2023-05-13T01:03:18.415Z,95.62
2023-05-13T01:04:58.758Z,95.92
2023-05-13T01:06:39.184Z,96.1
2023-05-13T01:08:19.579Z,96.16
2023-05-13T01:10:00.006Z,96.26
2023-05-13T01:11:40.419Z,96.05
2023-05-13T01:13:20.821Z,95.9
2023-05-13T01:15:01.203Z,95.99
2023-05-13T01:16:41.667Z,96.14
2023-05-13T01:18:22.073Z,96.1
2023-05-13T01:20:02.399Z,95.84
2023-05-13T01:21:42.826Z,96.03
2023-05-13T01:23:23.203Z,96.33
2023-05-13T01:25:03.617Z,96.68
2023-05-13T01:26:43.968Z,97.15
2023-05-13T01:28:24.311Z,97.31
2023-05-13T01:30:04.701Z,97.2
2023-05-13T01:31:45.226Z,97.01
2023-05-13T01:33:25.517Z,96.86
2023-05-13T01:35:05.849Z,96.91
2023-05-13T01:36:46.304Z,96.84
2023-05-13T01:38:26.739Z,96.94
2023-05-13T01:40:17.148Z,96.75
2023-05-13T01:41:47.502Z,96.74
2023-05-13T01:43:27.902Z,96.86
2023-05-13T01:45:08.263Z,96.94
2023-05-13T01:46:48.933Z,97.07
2023-05-13T01:48:29.267Z,97.23
2023-05-13T01:50:09.641Z,97.24
2023-05-13T01:51:49.999Z,97.42
2023-05-13T01:53:30.344Z,97.37
2023-05-13T01:55:10.759Z,97.43
2023-05-13T01:56:51.152Z,97.33
2023-05-13T01:58:31.420Z,97.44
2023-05-13T02:00:11.775Z,97.53
2023-05-13T02:01:52.286Z,97.69
2023-05-13T02:03:32.618Z,97.73
2023-05-13T02:05:12.926Z,97.82
2023-05-13T02:06:53.327Z,97.94
2023-05-13T02:08:33.779Z,97.93
2023-05-13T02:10:14.220Z,97.97
2023-05-13T02:11:54.585Z,98.1
2023-05-13T02:13:34.922Z,98.19
2023-05-13T02:15:15.297Z,98.2
2023-05-13T02:16:55.893Z,98.27
2023-05-13T02:18:36.215Z,98.33
2023-05-13T02:20:16.567Z,98.41
2023-05-13T02:21:56.952Z,98.45
2023-05-13T02:23:37.327Z,98.46
2023-05-13T02:25:17.766Z,98.52
2023-05-13T02:26:58.218Z,98.52
2023-05-13T02:28:38.635Z,98.49
2023-05-13T02:30:18.887Z,98.42
2023-05-13T02:31:59.277Z,98.39
2023-05-13T02:33:39.637Z,98.31
2023-05-13T02:35:20.134Z,98.33
2023-05-13T02:37:00.522Z,98.39
2023-05-13T02:38:40.954Z,98.34
2023-05-13T02:40:21.662Z,98.31
2023-05-13T02:42:01.813Z,98.26
2023-05-13T02:43:42.163Z,98.24
2023-05-13T02:45:22.562Z,98.22
2023-05-13T02:47:02.982Z,98.1
2023-05-13T02:48:43.428Z,98.15
2023-05-13T02:50:24.033Z,98.55
2023-05-13T02:52:04.329Z,98.8
2023-05-13T02:53:44.673Z,98.85
2023-05-13T02:55:25.186Z,98.82
2023-05-13T02:57:05.397Z,98.8
2023-05-13T02:58:45.643Z,98.8
2023-05-13T03:00:25.994Z,98.74
2023-05-13T03:02:06.375Z,98.7
2023-05-13T03:03:46.780Z,98.67
2023-05-13T03:05:29.210Z,98.5
2023-05-13T03:07:07.559Z,98.28
2023-05-13T03:08:47.952Z,98.17
2023-05-13T03:10:28.405Z,98.34
2023-05-13T03:12:08.842Z,98.44
2023-05-13T03:13:49.172Z,98.48
2023-05-13T03:15:29.504Z,98.5
2023-05-13T03:17:09.917Z,98.51
2023-05-13T03:18:50.331Z,98.46
2023-05-13T03:20:30.726Z,98.46
2023-05-13T03:22:11.224Z,98.49
2023-05-13T03:23:51.537Z,98.61
2023-05-13T03:25:31.953Z,98.67
2023-05-13T03:27:12.325Z,98.72
2023-05-13T03:28:52.686Z,98.69
2023-05-13T03:30:33.033Z,98.63
2023-05-13T03:32:13.439Z,98.52
2023-05-13T03:33:53.771Z,98.54
2023-05-13T03:35:34.116Z,98.54
2023-05-13T03:37:14.521Z,98.7
2023-05-13T03:38:54.960Z,98.7
2023-05-13T03:40:35.319Z,98.65
2023-05-13T03:42:15.733Z,98.62
2023-05-13T03:43:56.156Z,98.5
2023-05-13T03:45:36.547Z,98.37
2023-05-13T03:47:17.002Z,98.31
2023-05-13T03:48:57.427Z,98.27
2023-05-13T03:50:37.892Z,98.2
2023-05-13T03:52:18.287Z,98.16
2023-05-13T03:53:58.679Z,98.32
2023-05-13T03:55:39.139Z,98.29
2023-05-13T03:57:19.518Z,98.21
2023-05-13T03:58:59.949Z,98.28
2023-05-13T04:00:40.364Z,98.3
2023-05-13T04:02:20.819Z,98.34
2023-05-13T04:04:01.326Z,98.35
2023-05-13T04:05:41.672Z,98.45
2023-05-13T04:07:22.163Z,98.48
2023-05-13T04:09:02.581Z,98.56
2023-05-13T04:10:43.006Z,98.5
2023-05-13T04:12:23.351Z,98.64
2023-05-13T04:14:03.854Z,98.66
2023-05-13T04:15:44.243Z,98.64
2023-05-13T04:17:24.827Z,98.61
2023-05-13T04:19:05.225Z,98.56
2023-05-13T04:20:45.584Z,98.5
2023-05-13T04:22:26.001Z,98.47
2023-05-13T04:24:06.490Z,98.45
2023-05-13T04:25:46.860Z,98.33
2023-05-13T04:27:27.288Z,98.26
2023-05-13T04:29:07.799Z,98.32
2023-05-13T04:30:48.137Z,98.53
2023-05-13T04:32:28.693Z,98.65
2023-05-13T04:34:09.114Z,98.75
2023-05-13T04:35:49.552Z,98.87
2023-05-13T04:37:30.004Z,99.01
2023-05-13T04:39:10.425Z,99.14
2023-05-13T04:40:50.875Z,99.18
2023-05-13T04:42:31.260Z,99.28
2023-05-13T04:44:11.595Z,99.33
2023-05-13T04:45:52.001Z,99.36
2023-05-13T04:47:32.565Z,99.33
2023-05-13T04:49:12.977Z,99.35
2023-05-13T04:50:53.436Z,99.28
2023-05-13T04:52:33.919Z,99.15
2023-05-13T04:54:14.343Z,99.1
2023-05-13T04:55:54.826Z,99
2023-05-13T04:57:35.266Z,98.89
2023-05-13T04:59:15.652Z,98.77
2023-05-13T05:00:56.018Z,98.55
2023-05-13T05:02:36.467Z,98.44
2023-05-13T05:04:16.976Z,98.35
2023-05-13T05:05:57.249Z,98.31
2023-05-13T05:07:37.551Z,98.2
2023-05-13T05:09:18.070Z,98.05
2023-05-13T05:10:58.464Z,97.92
2023-05-13T05:12:38.887Z,97.92
2023-05-13T05:14:19.312Z,97.89
2023-05-13T05:15:59.697Z,97.78
2023-05-13T05:17:40.193Z,97.68
2023-05-13T05:19:20.617Z,97.74
2023-05-13T05:21:02.499Z,97.77
2023-05-13T05:22:41.271Z,97.66
2023-05-13T05:24:21.774Z,97.51
2023-05-13T05:26:11.301Z,97.45
2023-05-13T05:27:42.783Z,97.35
2023-05-13T05:29:23.121Z,97.26
2023-05-13T05:31:03.624Z,97.14
2023-05-13T05:32:44.088Z,97.09
2023-05-13T05:34:24.426Z,96.98
2023-05-13T05:36:04.830Z,96.76
2023-05-13T05:37:45.192Z,96.39
2023-05-13T05:39:25.646Z,96.31
2023-05-13T05:41:06.044Z,96.21
2023-05-13T05:42:46.345Z,96.13
2023-05-13T05:44:26.762Z,95.96
2023-05-13T05:46:07.213Z,95.89
2023-05-13T05:47:47.600Z,95.77
2023-05-13T05:49:27.993Z,95.72
2023-05-13T05:51:08.414Z,95.03
2023-05-13T05:52:48.732Z,94.04
2023-05-13T05:54:29.106Z,91.87
2023-05-13T05:56:09.551Z,91.66
2023-05-13T05:57:49.959Z,90.32
2023-05-13T05:59:30.384Z,88.68
2023-05-13T06:01:10.793Z,87.95
2023-05-13T06:02:51.299Z,86
2023-05-13T06:04:31.664Z,85.1
2023-05-13T06:06:12.053Z,84.2
2023-05-13T06:07:52.367Z,84.39
2023-05-13T06:09:32.769Z,83.52
2023-05-13T06:11:13.239Z,82.87
2023-05-13T06:12:53.675Z,80.81
2023-05-13T06:14:34.114Z,79.61
2023-05-13T06:16:14.601Z,79.09
2023-05-13T06:17:55.082Z,78.32
2023-05-13T06:19:35.425Z,80.23
2023-05-13T06:21:15.862Z,77.28
2023-05-13T06:22:56.364Z,76.34
2023-05-13T06:24:36.774Z,75.62
2023-05-13T06:26:17.247Z,75.66
2023-05-13T06:27:57.701Z,74.62
2023-05-13T06:29:38.189Z,75.32
2023-05-13T06:31:18.616Z,76.19
2023-05-13T06:33:02.129Z,75.62
2023-05-13T06:34:39.312Z,75.77
2023-05-13T06:36:19.676Z,73.32
2023-05-13T06:38:00.135Z,72.38
2023-05-13T06:39:40.514Z,72.24
2023-05-13T06:41:21.037Z,71.27
2023-05-13T06:43:01.550Z,73.23
2023-05-13T06:44:41.999Z,73.02
2023-05-13T06:46:22.451Z,73
2023-05-13T06:48:02.934Z,70.53
2023-05-13T06:49:43.343Z,71.46
2023-05-13T06:51:23.774Z,68.84
2023-05-13T06:53:04.062Z,71.01
2023-05-13T06:54:44.456Z,68.28
2023-05-13T06:56:24.814Z,68.97
2023-05-13T06:58:05.213Z,67.65
2023-05-13T06:59:45.605Z,69.01
2023-05-13T07:01:27.207Z,67.88
2023-05-13T07:03:06.556Z,67.86
2023-05-13T07:04:46.958Z,67.14
2023-05-13T07:06:27.341Z,66.96
2023-05-13T07:08:07.747Z,64.92
2023-05-13T07:09:48.093Z,65.6
2023-05-13T07:11:28.455Z,65.15
2023-05-13T07:13:08.991Z,65.56
2023-05-13T07:14:49.446Z,63.2
2023-05-13T07:16:29.944Z,61.78
2023-05-13T07:18:10.396Z,61.67
2023-05-13T07:19:50.688Z,63.38
2023-05-13T07:21:31.065Z,59.55
2023-05-13T07:23:11.467Z,60.18
2023-05-13T07:24:51.912Z,59.28
2023-05-13T07:26:32.362Z,59.3
2023-05-13T07:28:12.699Z,60
2023-05-13T07:29:53.168Z,59.58
2023-05-13T07:31:33.657Z,58.4
2023-05-13T07:33:14.204Z,56.73
2023-05-13T07:34:54.517Z,57.3
2023-05-13T07:36:34.900Z,55.79
2023-05-13T07:38:15.472Z,56.58
2023-05-13T07:39:55.732Z,55.58
2023-05-13T07:41:36.211Z,56.62
2023-05-13T07:43:16.709Z,54.85
2023-05-13T07:44:57.079Z,54.42
2023-05-13T07:46:37.533Z,55.66
2023-05-13T07:48:17.989Z,53.7
2023-05-13T07:49:58.449Z,54.3
2023-05-13T07:51:38.766Z,54.68
2023-05-13T07:53:19.871Z,53.83
2023-05-13T07:54:59.641Z,51.03
2023-05-13T07:56:40.132Z,56.3
2023-05-13T07:58:20.465Z,54.45
2023-05-13T08:00:00.866Z,52.6
2023-05-13T08:01:41.298Z,50.37
2023-05-13T08:03:21.838Z,48.96
2023-05-13T08:05:02.286Z,48.61
2023-05-13T08:06:42.521Z,47.59
2023-05-13T08:08:22.921Z,50.92
2023-05-13T08:10:03.322Z,47.72
2023-05-13T08:11:43.809Z,45.98
2023-05-13T08:13:24.222Z,47.48
2023-05-13T08:15:04.702Z,46.59
2023-05-13T08:16:45.114Z,46.57
2023-05-13T08:18:25.548Z,45.49
2023-05-13T08:20:05.899Z,45.1
2023-05-13T08:21:46.329Z,44.24
2023-05-13T08:23:40.477Z,44.52
2023-05-13T08:25:07.121Z,43.5
2023-05-13T08:26:47.534Z,44.49
2023-05-13T08:28:28.026Z,42.44
2023-05-13T08:30:08.467Z,42.27
2023-05-13T08:31:48.972Z,42.05
2023-05-13T08:33:29.349Z,44.3
2023-05-13T08:35:09.765Z,42.04
2023-05-13T08:36:50.259Z,40.39
2023-05-13T08:38:30.691Z,42.19
2023-05-13T08:40:11.227Z,42.53
2023-05-13T08:41:51.652Z,41.85
2023-05-13T08:43:32.109Z,42.41
2023-05-13T08:45:12.573Z,41.81
2023-05-13T08:46:53.000Z,44.04
2023-05-13T08:48:33.351Z,41.24
2023-05-13T08:50:13.732Z,42.31
2023-05-13T08:51:54.192Z,42.63
2023-05-13T08:53:34.589Z,44.44
2023-05-13T08:55:15.037Z,41.2
2023-05-13T08:56:55.457Z,40.24
2023-05-13T08:58:35.903Z,42.6
2023-05-13T09:00:16.277Z,42.18
2023-05-13T09:01:56.731Z,43.1
2023-05-13T09:03:37.202Z,44.36
2023-05-13T09:05:17.710Z,44.48
2023-05-13T09:06:57.975Z,44.79
2023-05-13T09:08:38.418Z,44.04
2023-05-13T09:10:18.877Z,43.07
2023-05-13T09:11:59.244Z,42.64
2023-05-13T09:13:39.675Z,42.34
2023-05-13T09:15:20.254Z,42.41
2023-05-13T09:17:00.430Z,41.78
2023-05-13T09:18:40.881Z,41.36
2023-05-13T09:20:21.320Z,41.18
2023-05-13T09:22:01.658Z,41.09
2023-05-13T09:23:42.061Z,42.6
2023-05-13T09:25:22.743Z,41.29
2023-05-13T09:27:02.851Z,42.13
2023-05-13T09:28:43.194Z,42.4
2023-05-13T09:30:23.608Z,38.57
2023-05-13T09:32:04.025Z,43.36
2023-05-13T09:33:44.370Z,39.84
2023-05-13T09:35:24.823Z,39.56
2023-05-13T09:37:05.253Z,38.13
2023-05-13T09:38:45.640Z,39.55
2023-05-13T09:40:26.082Z,38.18
2023-05-13T09:42:06.466Z,40.94
2023-05-13T09:43:46.874Z,41.16
2023-05-13T09:45:27.304Z,41.68
2023-05-13T09:47:07.809Z,42.01
2023-05-13T09:48:48.070Z,44.7
2023-05-13T09:50:28.503Z,45.46
2023-05-13T09:52:08.915Z,46.1
2023-05-13T09:53:49.407Z,44.63
2023-05-13T09:55:29.709Z,43.71
2023-05-13T09:57:10.070Z,47.16
2023-05-13T09:58:50.461Z,49.45
2023-05-13T10:00:33.175Z,50.56
2023-05-13T10:02:11.363Z,49.9
2023-05-13T10:03:51.796Z,50.38
2023-05-13T10:05:32.230Z,47.84
2023-05-13T10:07:12.654Z,46.62
2023-05-13T10:08:53.120Z,48.71
2023-05-13T10:10:33.556Z,50.49
2023-05-13T10:12:13.957Z,52.44
2023-05-13T10:13:54.395Z,52.12
2023-05-13T10:15:35.109Z,52.74
2023-05-13T10:17:15.493Z,52.66
2023-05-13T10:18:55.947Z,51.74
2023-05-13T10:20:36.376Z,55.97
2023-05-13T10:22:16.877Z,54.44
2023-05-13T10:23:57.290Z,54.42
2023-05-13T10:25:37.652Z,41
2023-05-13T10:27:18.090Z,46.41
2023-05-13T10:28:58.575Z,41.8
2023-05-13T10:30:38.913Z,41.39
2023-05-13T10:32:19.388Z,37.03
2023-05-13T10:33:59.693Z,36.66
2023-05-13T10:35:42.128Z,34.57
2023-05-13T10:37:20.469Z,34.77
2023-05-13T10:39:00.898Z,34.68
2023-05-13T10:40:41.371Z,33.73
2023-05-13T10:42:21.782Z,34.01
2023-05-13T10:44:02.251Z,33.06
2023-05-13T10:45:42.723Z,31.15
2023-05-13T10:47:23.176Z,33.13
2023-05-13T10:49:03.640Z,36.73
2023-05-13T10:50:44.077Z,31.4
2023-05-13T10:52:24.432Z,27.45
2023-05-13T10:54:04.801Z,27.32
2023-05-13T10:55:45.232Z,28.77
2023-05-13T10:57:25.699Z,27.51
2023-05-13T10:59:06.180Z,28.45
2023-05-13T11:00:46.557Z,29.85
2023-05-13T11:02:27.120Z,27.94
2023-05-13T11:04:07.493Z,31.71
2023-05-13T11:05:47.766Z,34.06
2023-05-13T11:07:28.153Z,33.65
2023-05-13T11:09:08.590Z,34.46
2023-05-13T11:10:49.005Z,35.06
2023-05-13T11:12:29.534Z,35.1
2023-05-13T11:14:09.913Z,36.53
2023-05-13T11:15:50.552Z,34.83
2023-05-13T11:17:30.921Z,36.29
2023-05-13T11:19:11.358Z,35.56
2023-05-13T11:20:52.916Z,36.26
2023-05-13T11:22:32.084Z,35.38
2023-05-13T11:24:12.468Z,36.94
2023-05-13T11:25:52.929Z,37.35
2023-05-13T11:27:33.321Z,35.98
2023-05-13T11:29:13.676Z,34.99
2023-05-13T11:30:54.142Z,36.56
2023-05-13T11:32:34.641Z,38.04
2023-05-13T11:34:15.070Z,40.22
2023-05-13T11:35:55.510Z,40.88
2023-05-13T11:37:35.973Z,36.77
2023-05-13T11:39:16.401Z,36.98
2023-05-13T11:40:56.748Z,37.38
2023-05-13T11:42:37.133Z,38.76
2023-05-13T11:44:17.574Z,38.78
2023-05-13T11:45:58.050Z,38.93
2023-05-13T11:47:38.402Z,40.06
2023-05-13T11:49:18.854Z,38.77
2023-05-13T11:50:59.303Z,39.25
2023-05-13T11:52:39.724Z,37.51
2023-05-13T11:54:20.151Z,37.52
2023-05-13T11:56:00.529Z,36.45
2023-05-13T11:57:41.044Z,35.2
2023-05-13T11:59:21.373Z,36.91
2023-05-13T12:01:01.780Z,36.22
2023-05-13T12:02:42.213Z,37.24
2023-05-13T12:04:22.568Z,38
2023-05-13T12:06:03.010Z,37.94
2023-05-13T12:07:43.353Z,39.38
2023-05-13T12:09:23.869Z,39.09
2023-05-13T12:11:04.281Z,39.33
2023-05-13T12:12:44.659Z,40.73
2023-05-13T12:14:27.087Z,42.01
2023-05-13T12:16:05.555Z,42.81
2023-05-13T12:17:46.036Z,44.09
2023-05-13T12:19:26.399Z,44.95
2023-05-13T12:21:06.719Z,43.65
2023-05-13T12:22:47.153Z,45.9
2023-05-13T12:24:27.601Z,47.51
2023-05-13T12:26:08.079Z,47.2
2023-05-13T12:27:48.425Z,46.98
2023-05-13T12:29:28.813Z,48.09
2023-05-13T12:31:09.256Z,47.85
2023-05-13T12:32:49.646Z,45.82
2023-05-13T12:34:30.051Z,45.32
2023-05-13T12:36:10.481Z,45.89
2023-05-13T12:37:50.912Z,47.31
2023-05-13T12:39:31.234Z,47.85
2023-05-13T12:41:11.651Z,48
2023-05-13T12:42:52.045Z,46.92
2023-05-13T12:44:32.476Z,46.75
2023-05-13T12:46:12.897Z,48.12
2023-05-13T12:47:53.288Z,48.3
2023-05-13T12:49:33.739Z,49.57
2023-05-13T12:51:14.108Z,50.27
2023-05-13T12:52:54.537Z,52.12
2023-05-13T12:54:34.954Z,55.54
2023-05-13T12:56:15.377Z,59.16
2023-05-13T12:57:55.750Z,59.61
2023-05-13T12:59:36.169Z,59.17
2023-05-13T13:01:16.558Z,53.38
2023-05-13T13:02:57.114Z,55.56
2023-05-13T13:04:37.377Z,58.44
2023-05-13T13:06:17.819Z,59.29
2023-05-13T13:07:58.290Z,59.53
2023-05-13T13:09:38.733Z,62.8
2023-05-13T13:11:19.136Z,63.45
2023-05-13T13:12:59.544Z,64.89
2023-05-13T13:14:39.913Z,65
2023-05-13T13:16:20.462Z,61.68
2023-05-13T13:18:00.833Z,59.96
2023-05-13T13:19:41.271Z,59.94
2023-05-13T13:21:21.709Z,60.26
2023-05-13T13:23:02.135Z,58.26
2023-05-13T13:24:42.504Z,56.62
2023-05-13T13:26:22.922Z,56.03
2023-05-13T13:28:03.397Z,53.08
2023-05-13T13:29:43.826Z,49.37
2023-05-13T13:31:24.223Z,46.2
2023-05-13T13:33:04.727Z,46.32
2023-05-13T13:34:45.026Z,44.74
2023-05-13T13:36:25.355Z,44.27
2023-05-13T13:38:05.789Z,43.96
2023-05-13T13:39:46.266Z,42.48
2023-05-13T13:41:26.731Z,43.56
2023-05-13T13:43:07.155Z,43.5
2023-05-13T13:44:47.572Z,42.61
2023-05-13T13:46:28.065Z,42.89
2023-05-13T13:48:08.550Z,43.3
2023-05-13T13:49:48.850Z,43.67
2023-05-13T13:51:29.234Z,43.92
2023-05-13T13:53:09.639Z,45.26
2023-05-13T13:54:50.048Z,44.65
2023-05-13T13:56:30.426Z,43.99
2023-05-13T13:58:10.866Z,41.97
2023-05-13T13:59:51.371Z,42.34
2023-05-13T14:01:31.915Z,45.57
2023-05-13T14:03:12.470Z,47.22
2023-05-13T14:04:52.713Z,44.13
2023-05-13T14:06:33.165Z,43.96
2023-05-13T14:08:13.555Z,43.22
2023-05-13T14:09:53.887Z,39.98
2023-05-13T14:11:34.320Z,47.37
2023-05-13T14:13:14.846Z,49.48
2023-05-13T14:14:55.283Z,46.46
2023-05-13T14:16:35.693Z,48.71
2023-05-13T14:18:16.129Z,39.94
2023-05-13T14:19:56.595Z,42.15
2023-05-13T14:21:36.910Z,43.19
2023-05-13T14:23:17.216Z,45.06
2023-05-13T14:24:57.615Z,49.65
2023-05-13T14:26:37.996Z,48.01
2023-05-13T14:28:18.451Z,45.62
2023-05-13T14:29:58.850Z,44.97
2023-05-13T14:31:39.417Z,44.57
2023-05-13T14:33:19.789Z,44.19
2023-05-13T14:35:00.280Z,45.58
2023-05-13T14:36:40.646Z,41.04
2023-05-13T14:38:21.110Z,40.96
2023-05-13T14:40:01.511Z,40.44
2023-05-13T14:41:42.000Z,40.99
2023-05-13T14:43:22.446Z,41.19
2023-05-13T14:45:02.846Z,41.01
2023-05-13T14:46:43.304Z,42.45
2023-05-13T14:48:23.683Z,39.51
2023-05-13T14:50:04.270Z,41.67
2023-05-13T14:51:44.617Z,39.18
2023-05-13T14:53:25.053Z,39.61
2023-05-13T14:55:05.447Z,38.24
2023-05-13T14:56:46.024Z,38.6
2023-05-13T14:58:26.330Z,37.58
2023-05-13T15:00:06.793Z,33.69
2023-05-13T15:01:47.262Z,33.6
2023-05-13T15:03:27.647Z,30.9
2023-05-13T15:05:08.059Z,34.63
2023-05-13T15:06:48.546Z,31.4
2023-05-13T15:08:28.934Z,31.4
2023-05-13T15:10:09.351Z,30.45
2023-05-13T15:11:49.789Z,29.19
2023-05-13T15:13:30.242Z,29.63
2023-05-13T15:15:10.686Z,31.52
2023-05-13T15:16:51.089Z,29.9
2023-05-13T15:18:31.590Z,30.6
2023-05-13T15:20:11.996Z,30.44
2023-05-13T15:21:52.367Z,30.65
2023-05-13T15:23:32.674Z,30.84
2023-05-13T15:25:13.140Z,30.95
2023-05-13T15:26:53.517Z,31.66
2023-05-13T15:28:33.927Z,29.85
2023-05-13T15:30:14.355Z,32.27
2023-05-13T15:31:54.798Z,33.61
2023-05-13T15:33:35.189Z,32.17
2023-05-13T15:35:15.586Z,33.74
2023-05-13T15:36:55.957Z,32.08
2023-05-13T15:38:36.371Z,31.12
2023-05-13T15:40:16.754Z,30.47
2023-05-13T15:41:57.236Z,30.99
2023-05-13T15:43:37.674Z,31.11
2023-05-13T15:45:18.162Z,31.24
2023-05-13T15:46:58.694Z,28.99
2023-05-13T15:48:38.866Z,30.35
2023-05-13T15:50:19.350Z,31.29
2023-05-13T15:51:59.646Z,29.66
2023-05-13T15:53:40.100Z,30.8
2023-05-13T15:55:20.509Z,29.71
2023-05-13T15:57:00.942Z,30.07
2023-05-13T15:58:41.365Z,29.39
2023-05-13T16:00:22.126Z,31.1
2023-05-13T16:02:02.163Z,30.58
2023-05-13T16:03:42.489Z,31.11
2023-05-13T16:05:22.884Z,29.75
2023-05-13T16:07:03.349Z,31.47
2023-05-13T16:08:43.818Z,31.33
2023-05-13T16:10:24.711Z,31.58
2023-05-13T16:12:04.678Z,29.76
2023-05-13T16:13:45.065Z,29.1
2023-05-13T16:15:25.436Z,28.66
2023-05-13T16:17:05.815Z,28.62
2023-05-13T16:18:46.297Z,28.61
2023-05-13T16:20:26.618Z,27.25
2023-05-13T16:22:07.083Z,28.51
2023-05-13T16:23:47.565Z,27.44
2023-05-13T16:25:28.057Z,28.1
2023-05-13T16:27:08.498Z,28.56
2023-05-13T16:28:49.007Z,27.3
2023-05-13T16:30:29.471Z,28.46
2023-05-13T16:32:09.914Z,26.94
2023-05-13T16:33:50.329Z,26.86
2023-05-13T16:35:30.791Z,27.13
2023-05-13T16:37:10.962Z,26.82
2023-05-13T16:38:51.370Z,28.15
2023-05-13T16:40:31.749Z,27.82
2023-05-13T16:42:12.125Z,27.93
2023-05-13T16:43:52.600Z,28.4
2023-05-13T16:45:33.064Z,27.7
2023-05-13T16:47:13.501Z,28.57
2023-05-13T16:48:54.006Z,27.35
2023-05-13T16:50:34.410Z,29.32
2023-05-13T16:52:14.897Z,29.73
2023-05-13T16:53:55.295Z,28.44
2023-05-13T16:55:35.777Z,28.58
2023-05-13T16:57:16.180Z,27.06
2023-05-13T16:58:56.546Z,28.68
2023-05-13T17:00:36.950Z,27.75
2023-05-13T17:02:17.383Z,29.01
2023-05-13T17:03:57.804Z,28.02
2023-05-13T17:05:38.237Z,28.32
2023-05-13T17:07:18.638Z,29.25
2023-05-13T17:08:59.068Z,28.57
2023-05-13T17:10:39.502Z,29.67
2023-05-13T17:12:19.972Z,28.47
2023-05-13T17:14:00.467Z,29.78
2023-05-13T17:15:40.898Z,29.31
2023-05-13T17:17:21.384Z,29.68
2023-05-13T17:19:01.923Z,30.71
2023-05-13T17:20:42.240Z,29.78
2023-05-13T17:22:22.667Z,30.27
2023-05-13T17:24:03.140Z,29.11
2023-05-13T17:25:43.561Z,30.55
2023-05-13T17:27:24.036Z,29.92
2023-05-13T17:29:04.504Z,30.01
2023-05-13T17:30:44.802Z,29.96
2023-05-13T17:32:25.294Z,30.64
2023-05-13T17:34:05.607Z,30.7
2023-05-13T17:35:46.070Z,30.21
2023-05-13T17:37:26.529Z,29.54
2023-05-13T17:39:06.996Z,29.1
2023-05-13T17:40:47.324Z,30.96
2023-05-13T17:42:27.713Z,31.89
2023-05-13T17:44:08.179Z,30.59
2023-05-13T17:45:48.542Z,30.92
2023-05-13T17:47:28.966Z,30.44
2023-05-13T17:49:09.514Z,32.13
2023-05-13T17:50:49.903Z,32.67
2023-05-13T17:52:30.423Z,32.83
2023-05-13T17:54:10.797Z,32.97
2023-05-13T17:55:51.230Z,32.86
2023-05-13T17:57:34.702Z,31.92
2023-05-13T17:59:12.091Z,32.31
2023-05-13T18:00:52.554Z,31.96
2023-05-13T18:02:32.952Z,33.41
2023-05-13T18:04:13.333Z,35.9
2023-05-13T18:05:53.970Z,35
2023-05-13T18:07:34.227Z,35.4
2023-05-13T18:09:14.660Z,36.07
2023-05-13T18:10:55.118Z,35.33
2023-05-13T18:12:35.558Z,34.94
2023-05-13T18:14:15.963Z,36.2
2023-05-13T18:15:56.388Z,36.52
2023-05-13T18:17:36.833Z,36.22
2023-05-13T18:19:17.125Z,37
2023-05-13T18:20:57.641Z,38.24
2023-05-13T18:22:38.153Z,38.24
2023-05-13T18:24:18.656Z,38.33
2023-05-13T18:25:59.167Z,38.92
2023-05-13T18:27:39.629Z,40.12
2023-05-13T18:29:20.024Z,38.02
2023-05-13T18:31:00.363Z,40.38
2023-05-13T18:32:40.745Z,41.93
2023-05-13T18:34:21.073Z,41.68
2023-05-13T18:36:01.465Z,44.18
2023-05-13T18:37:41.836Z,41.57
2023-05-13T18:39:22.297Z,43.38
2023-05-13T18:41:02.621Z,44.83
2023-05-13T18:42:43.080Z,45.9
2023-05-13T18:44:23.493Z,46.33
2023-05-13T18:46:03.999Z,47.28
2023-05-13T18:47:44.422Z,46.09
2023-05-13T18:49:24.739Z,46.63
2023-05-13T18:51:05.089Z,49.38
2023-05-13T18:52:45.479Z,49.42
2023-05-13T18:54:25.936Z,48.26
2023-05-13T18:56:06.361Z,48.94
2023-05-13T18:57:46.677Z,49.91
2023-05-13T18:59:27.071Z,50.06
2023-05-13T19:01:07.573Z,50.82
2023-05-13T19:02:48.098Z,51.54
2023-05-13T19:04:28.501Z,52.89
2023-05-13T19:06:08.865Z,53.66
2023-05-13T19:07:49.324Z,54.89
2023-05-13T19:09:29.782Z,55.22
2023-05-13T19:11:13.584Z,56.17
2023-05-13T19:12:50.559Z,56.77
2023-05-13T19:14:30.972Z,57.02
2023-05-13T19:16:11.417Z,58.1
2023-05-13T19:17:51.931Z,58.54
2023-05-13T19:19:32.285Z,59.02
2023-05-13T19:21:12.759Z,59.49
2023-05-13T19:22:53.187Z,59.92
2023-05-13T19:24:33.576Z,60.68
2023-05-13T19:26:13.931Z,61.3
2023-05-13T19:27:54.366Z,61.85
2023-05-13T19:29:34.824Z,62.35
2023-05-13T19:31:15.210Z,62.6
2023-05-13T19:32:55.600Z,63.08
2023-05-13T19:34:35.931Z,63.01
2023-05-13T19:36:16.345Z,63.24
2023-05-13T19:37:56.747Z,63.71
2023-05-13T19:39:37.193Z,63.54
2023-05-13T19:41:17.657Z,64.06
2023-05-13T19:42:58.089Z,65.95
2023-05-13T19:44:38.537Z,67.31
2023-05-13T19:46:18.940Z,67.7
2023-05-13T19:47:59.453Z,68.51
2023-05-13T19:49:39.730Z,68.8
2023-05-13T19:51:20.097Z,70.1
2023-05-13T19:53:00.512Z,70.63
2023-05-13T19:54:40.899Z,71.02
2023-05-13T19:56:21.339Z,72.19
2023-05-13T19:58:01.729Z,72.13
2023-05-13T19:59:42.069Z,72.7
2023-05-13T20:01:22.592Z,72.59
2023-05-13T20:03:03.066Z,72.97
2023-05-13T20:04:43.377Z,74.5
2023-05-13T20:06:23.629Z,75.33
2023-05-13T20:08:04.042Z,75.68
2023-05-13T20:09:44.482Z,75.79
2023-05-13T20:11:24.980Z,76.45
2023-05-13T20:13:05.462Z,76.75
2023-05-13T20:14:45.885Z,77.21
2023-05-13T20:16:26.299Z,77.45
2023-05-13T20:18:06.811Z,77.52
2023-05-13T20:19:47.169Z,78.55
2023-05-13T20:21:27.541Z,78.57
2023-05-13T20:23:07.984Z,78.32
2023-05-13T20:24:48.435Z,79.86
2023-05-13T20:26:28.884Z,80.14
2023-05-13T20:28:09.317Z,80.93
2023-05-13T20:29:49.695Z,79.6
2023-05-13T20:31:30.161Z,80.49
2023-05-13T20:33:10.569Z,81.45
2023-05-13T20:34:50.952Z,82.55
2023-05-13T20:36:31.301Z,82.11
2023-05-13T20:38:14.711Z,83.47
2023-05-13T20:39:52.042Z,83.18
2023-05-13T20:41:32.459Z,83.62
2023-05-13T20:43:12.913Z,84.01
2023-05-13T20:44:53.342Z,83.91
2023-05-13T20:46:33.852Z,84.23
2023-05-13T20:48:14.211Z,85.03
2023-05-13T20:49:54.609Z,84.93
2023-05-13T20:51:34.973Z,85.76
2023-05-13T20:53:15.361Z,85.59
2023-05-13T20:54:55.771Z,85.37
2023-05-13T20:56:36.194Z,85.89
2023-05-13T20:58:16.635Z,85.19
2023-05-13T20:59:57.054Z,84.81
2023-05-13T21:01:37.440Z,84.7
2023-05-13T21:03:17.853Z,85.73
2023-05-13T21:04:58.181Z,86.23
2023-05-13T21:06:38.610Z,86.4
2023-05-13T21:08:18.815Z,85.45
2023-05-13T21:09:59.207Z,86.02
2023-05-13T21:11:39.590Z,87.11
2023-05-13T21:13:20.062Z,86.81
2023-05-13T21:15:00.559Z,86.45
2023-05-13T21:16:40.956Z,87.14
2023-05-13T21:18:21.450Z,86.36
2023-05-13T21:20:01.838Z,86.52
2023-05-13T21:21:42.284Z,87.44
2023-05-13T21:23:22.528Z,87.37
2023-05-13T21:25:02.844Z,86.68
2023-05-13T21:26:43.175Z,86.54
2023-05-13T21:28:23.579Z,86.64
2023-05-13T21:30:04.004Z,87.23
2023-05-13T21:31:44.455Z,86.52
2023-05-13T21:33:24.816Z,86.88
2023-05-13T21:35:05.201Z,87.31
2023-05-13T21:36:45.552Z,87.6
2023-05-13T21:38:26.164Z,88.36
2023-05-13T21:40:06.506Z,87.79